sensor_id;sensor_type;location;lat;lon;timestamp;pressure;altitude;pressure_sealevel;temperature;humidity
40592;BME280;26301;42.832;23.918;2023-01-10T00:01:37;92371.00;;;6.46;72.45
40592;BME280;26301;42.832;23.918;2023-01-10T00:04:03;92362.53;;;6.45;72.84
40592;BME280;26301;42.832;23.918;2023-01-10T00:06:29;92365.09;;;6.45;73.36
40592;BME280;26301;42.832;23.918;2023-01-10T00:08:54;92337.94;;;6.32;73.70
40592;BME280;26301;42.832;23.918;2023-01-10T00:11:22;92361.31;;;6.48;72.62
40592;BME280;26301;42.832;23.918;2023-01-10T00:14:06;92359.72;;;6.47;73.79
40592;BME280;26301;42.832;23.918;2023-01-10T00:16:32;92366.97;;;6.50;72.74
40592;BME280;26301;42.832;23.918;2023-01-10T00:18:58;92361.19;;;6.43;73.21
40592;BME280;26301;42.832;23.918;2023-01-10T00:21:23;92358.81;;;6.53;72.27
40592;BME280;26301;42.832;23.918;2023-01-10T00:23:49;92357.09;;;6.41;72.88
40592;BME280;26301;42.832;23.918;2023-01-10T00:26:15;92350.94;;;6.43;72.26
40592;BME280;26301;42.832;23.918;2023-01-10T00:28:41;92365.66;;;6.47;73.21
40592;BME280;26301;42.832;23.918;2023-01-10T00:31:08;92357.41;;;6.45;72.96
40592;BME280;26301;42.832;23.918;2023-01-10T00:33:36;92350.94;;;6.43;73.35
40592;BME280;26301;42.832;23.918;2023-01-10T00:36:04;92322.88;;;6.36;73.17
40592;BME280;26301;42.832;23.918;2023-01-10T00:38:30;92348.03;;;6.51;73.02
40592;BME280;26301;42.832;23.918;2023-01-10T00:40:57;92345.56;;;6.56;72.73
40592;BME280;26301;42.832;23.918;2023-01-10T00:43:23;92311.53;;;6.49;72.12
40592;BME280;26301;42.832;23.918;2023-01-10T00:46:08;92307.94;;;6.33;73.40
40592;BME280;26301;42.832;23.918;2023-01-10T00:48:34;92312.16;;;6.39;73.59
40592;BME280;26301;42.832;23.918;2023-01-10T00:50:59;92303.13;;;6.36;73.51
40592;BME280;26301;42.832;23.918;2023-01-10T00:53:25;92312.78;;;6.46;73.60
40592;BME280;26301;42.832;23.918;2023-01-10T00:55:53;92314.38;;;6.64;72.86
40592;BME280;26301;42.832;23.918;2023-01-10T00:58:19;92296.16;;;6.49;73.39
40592;BME280;26301;42.832;23.918;2023-01-10T01:00:45;92305.50;;;6.55;72.46
40592;BME280;26301;42.832;23.918;2023-01-10T01:03:14;92318.06;;;6.68;72.55
40592;BME280;26301;42.832;23.918;2023-01-10T01:05:41;92321.41;;;6.69;72.54
40592;BME280;26301;42.832;23.918;2023-01-10T01:08:07;92302.72;;;6.56;72.56
40592;BME280;26301;42.832;23.918;2023-01-10T01:10:32;92300.56;;;6.65;71.55
40592;BME280;26301;42.832;23.918;2023-01-10T01:13:05;92277.47;;;6.65;71.41
40592;BME280;26301;42.832;23.918;2023-01-10T01:15:31;92286.72;;;6.83;71.96
40592;BME280;26301;42.832;23.918;2023-01-10T01:17:57;92282.75;;;6.75;72.08
40592;BME280;26301;42.832;23.918;2023-01-10T01:20:23;92275.41;;;6.67;72.42
40592;BME280;26301;42.832;23.918;2023-01-10T01:22:49;92261.97;;;6.77;70.93
40592;BME280;26301;42.832;23.918;2023-01-10T01:25:14;92242.75;;;6.79;71.57
40592;BME280;26301;42.832;23.918;2023-01-10T01:27:40;92250.34;;;6.86;71.27
40592;BME280;26301;42.832;23.918;2023-01-10T01:30:08;92265.19;;;6.84;71.39
40592;BME280;26301;42.832;23.918;2023-01-10T01:32:34;92248.75;;;6.85;71.88
40592;BME280;26301;42.832;23.918;2023-01-10T01:35:00;92246.44;;;6.83;71.18
40592;BME280;26301;42.832;23.918;2023-01-10T01:37:25;92233.28;;;6.80;71.45
40592;BME280;26301;42.832;23.918;2023-01-10T01:39:51;92251.72;;;6.94;71.72
40592;BME280;26301;42.832;23.918;2023-01-10T01:42:29;92232.72;;;6.95;70.38
40592;BME280;26301;42.832;23.918;2023-01-10T01:50:17;92232.41;;;6.91;70.24
40592;BME280;26301;42.832;23.918;2023-01-10T01:52:44;92219.06;;;6.89;70.19
40592;BME280;26301;42.832;23.918;2023-01-10T01:55:11;92236.41;;;6.99;70.10
40592;BME280;26301;42.832;23.918;2023-01-10T01:57:39;92257.25;;;7.02;70.36
40592;BME280;26301;42.832;23.918;2023-01-10T02:00:05;92275.03;;;7.09;70.34
40592;BME280;26301;42.832;23.918;2023-01-10T02:02:34;92271.41;;;7.05;69.72
40592;BME280;26301;42.832;23.918;2023-01-10T02:05:05;92255.81;;;6.95;70.26
40592;BME280;26301;42.832;23.918;2023-01-10T02:07:35;92272.25;;;7.10;68.93
40592;BME280;26301;42.832;23.918;2023-01-10T02:10:19;92287.75;;;6.99;70.81
40592;BME280;26301;42.832;23.918;2023-01-10T02:12:49;92295.81;;;6.91;70.57
40592;BME280;26301;42.832;23.918;2023-01-10T02:15:16;92288.38;;;6.89;70.25
40592;BME280;26301;42.832;23.918;2023-01-10T02:17:42;92286.56;;;6.90;70.82
40592;BME280;26301;42.832;23.918;2023-01-10T02:20:12;92256.91;;;6.82;70.21
40592;BME280;26301;42.832;23.918;2023-01-10T02:39:32;92210.72;;;6.82;71.10
40592;BME280;26301;42.832;23.918;2023-01-10T02:42:07;92224.09;;;6.84;71.19
40592;BME280;26301;42.832;23.918;2023-01-10T02:44:35;92226.28;;;6.92;71.59
40592;BME280;26301;42.832;23.918;2023-01-10T02:47:07;92198.66;;;6.82;71.03
40592;BME280;26301;42.832;23.918;2023-01-10T02:49:41;92198.91;;;6.81;71.43
40592;BME280;26301;42.832;23.918;2023-01-10T02:52:07;92203.78;;;6.82;72.15
40592;BME280;26301;42.832;23.918;2023-01-10T02:54:33;92188.72;;;6.69;72.12
40592;BME280;26301;42.832;23.918;2023-01-10T02:57:11;92195.56;;;6.80;72.21
40592;BME280;26301;42.832;23.918;2023-01-10T03:07:45;92191.50;;;7.01;71.75
40592;BME280;26301;42.832;23.918;2023-01-10T03:10:38;92198.56;;;7.11;71.76
40592;BME280;26301;42.832;23.918;2023-01-10T03:13:50;92180.28;;;7.07;71.66
40592;BME280;26301;42.832;23.918;2023-01-10T03:16:19;92181.66;;;7.15;71.04
40592;BME280;26301;42.832;23.918;2023-01-10T03:18:52;92182.44;;;7.16;71.03
40592;BME280;26301;42.832;23.918;2023-01-10T03:21:20;92186.19;;;7.08;71.78
40592;BME280;26301;42.832;23.918;2023-01-10T03:23:48;92184.94;;;7.10;71.19
40592;BME280;26301;42.832;23.918;2023-01-10T03:26:20;92177.28;;;7.16;71.38
40592;BME280;26301;42.832;23.918;2023-01-10T03:28:51;92188.19;;;7.23;70.96
40592;BME280;26301;42.832;23.918;2023-01-10T03:31:22;92193.38;;;7.28;71.45
40592;BME280;26301;42.832;23.918;2023-01-10T03:33:48;92196.28;;;7.31;71.27
40592;BME280;26301;42.832;23.918;2023-01-10T03:36:27;92195.03;;;7.34;70.65
40592;BME280;26301;42.832;23.918;2023-01-10T03:44:30;92179.25;;;7.25;71.46
40592;BME280;26301;42.832;23.918;2023-01-10T03:49:58;92170.88;;;7.35;71.05
40592;BME280;26301;42.832;23.918;2023-01-10T03:52:25;92169.16;;;7.41;71.19
40592;BME280;26301;42.832;23.918;2023-01-10T03:54:51;92180.56;;;7.50;71.06
40592;BME280;26301;42.832;23.918;2023-01-10T03:57:21;92186.47;;;7.50;71.09
40592;BME280;26301;42.832;23.918;2023-01-10T03:59:51;92175.47;;;7.55;71.14
40592;BME280;26301;42.832;23.918;2023-01-10T04:02:17;92166.09;;;7.66;70.20
40592;BME280;26301;42.832;23.918;2023-01-10T04:04:42;92156.88;;;7.48;70.88
40592;BME280;26301;42.832;23.918;2023-01-10T04:07:08;92156.78;;;7.60;70.48
40592;BME280;26301;42.832;23.918;2023-01-10T04:09:34;92152.53;;;7.48;70.81
40592;BME280;26301;42.832;23.918;2023-01-10T04:11:59;92166.28;;;7.59;70.99
40592;BME280;26301;42.832;23.918;2023-01-10T04:14:26;92147.94;;;7.50;71.24
40592;BME280;26301;42.832;23.918;2023-01-10T04:16:52;92129.41;;;7.48;70.93
40592;BME280;26301;42.832;23.918;2023-01-10T04:19:18;92140.72;;;7.74;70.60
40592;BME280;26301;42.832;23.918;2023-01-10T04:21:43;92143.59;;;7.78;71.15
40592;BME280;26301;42.832;23.918;2023-01-10T04:24:09;92130.19;;;7.76;71.21
40592;BME280;26301;42.832;23.918;2023-01-10T04:26:34;92083.28;;;7.59;71.89
40592;BME280;26301;42.832;23.918;2023-01-10T04:29:00;92082.66;;;7.51;72.72
40592;BME280;26301;42.832;23.918;2023-01-10T04:31:26;92074.88;;;7.68;72.06
40592;BME280;26301;42.832;23.918;2023-01-10T04:33:52;92097.09;;;7.79;72.20
40592;BME280;26301;42.832;23.918;2023-01-10T04:36:17;92075.06;;;7.62;72.52
40592;BME280;26301;42.832;23.918;2023-01-10T04:38:43;92089.06;;;7.76;72.09
40592;BME280;26301;42.832;23.918;2023-01-10T04:41:09;92086.66;;;7.91;71.48
40592;BME280;26301;42.832;23.918;2023-01-10T04:43:34;92080.94;;;7.84;71.92
40592;BME280;26301;42.832;23.918;2023-01-10T04:46:00;92063.38;;;7.76;72.55
40592;BME280;26301;42.832;23.918;2023-01-10T04:48:26;92078.13;;;7.86;71.86
40592;BME280;26301;42.832;23.918;2023-01-10T04:50:52;92088.34;;;7.81;72.77
40592;BME280;26301;42.832;23.918;2023-01-10T04:53:19;92066.63;;;7.66;72.50
40592;BME280;26301;42.832;23.918;2023-01-10T04:55:46;92103.53;;;7.82;72.46
40592;BME280;26301;42.832;23.918;2023-01-10T04:58:12;92094.56;;;7.85;72.21
40592;BME280;26301;42.832;23.918;2023-01-10T05:00:37;92103.84;;;7.91;71.24
40592;BME280;26301;42.832;23.918;2023-01-10T05:03:03;92101.00;;;7.87;71.79
40592;BME280;26301;42.832;23.918;2023-01-10T05:05:30;92132.47;;;7.94;71.48
40592;BME280;26301;42.832;23.918;2023-01-10T05:07:56;92139.28;;;8.11;70.95
40592;BME280;26301;42.832;23.918;2023-01-10T05:10:22;92146.72;;;8.07;70.91
40592;BME280;26301;42.832;23.918;2023-01-10T05:12:47;92167.09;;;8.14;71.23
40592;BME280;26301;42.832;23.918;2023-01-10T05:15:13;92177.44;;;8.19;70.79
40592;BME280;26301;42.832;23.918;2023-01-10T05:17:39;92154.28;;;8.19;70.62
40592;BME280;26301;42.832;23.918;2023-01-10T05:20:06;92174.41;;;8.27;70.89
40592;BME280;26301;42.832;23.918;2023-01-10T05:22:32;92146.78;;;8.17;71.04
40592;BME280;26301;42.832;23.918;2023-01-10T05:24:58;92147.38;;;8.24;71.11
40592;BME280;26301;42.832;23.918;2023-01-10T05:27:24;92154.63;;;8.28;71.09
40592;BME280;26301;42.832;23.918;2023-01-10T05:29:49;92135.56;;;8.29;70.92
40592;BME280;26301;42.832;23.918;2023-01-10T05:32:15;92137.47;;;8.38;70.99
40592;BME280;26301;42.832;23.918;2023-01-10T05:34:41;92123.81;;;8.38;71.15
40592;BME280;26301;42.832;23.918;2023-01-10T05:37:07;92118.00;;;8.20;71.60
40592;BME280;26301;42.832;23.918;2023-01-10T05:39:33;92110.66;;;8.34;71.16
40592;BME280;26301;42.832;23.918;2023-01-10T05:41:58;92091.69;;;8.40;70.54
40592;BME280;26301;42.832;23.918;2023-01-10T05:44:24;92085.00;;;8.39;70.16
40592;BME280;26301;42.832;23.918;2023-01-10T05:46:50;92081.22;;;8.52;69.94
40592;BME280;26301;42.832;23.918;2023-01-10T05:49:16;92087.66;;;8.50;70.28
40592;BME280;26301;42.832;23.918;2023-01-10T05:51:42;92069.50;;;8.34;70.58
40592;BME280;26301;42.832;23.918;2023-01-10T05:54:07;92073.34;;;8.32;70.23
40592;BME280;26301;42.832;23.918;2023-01-10T05:56:33;92102.53;;;8.47;69.80
40592;BME280;26301;42.832;23.918;2023-01-10T05:58:59;92082.50;;;8.50;69.10
40592;BME280;26301;42.832;23.918;2023-01-10T06:01:24;92097.66;;;8.46;69.33
40592;BME280;26301;42.832;23.918;2023-01-10T06:03:50;92107.75;;;8.53;68.47
40592;BME280;26301;42.832;23.918;2023-01-10T06:06:16;92123.88;;;8.43;68.99
40592;BME280;26301;42.832;23.918;2023-01-10T06:08:41;92131.53;;;8.38;69.53
40592;BME280;26301;42.832;23.918;2023-01-10T06:11:07;92133.06;;;8.34;70.52
40592;BME280;26301;42.832;23.918;2023-01-10T06:13:32;92137.75;;;8.15;70.84
40592;BME280;26301;42.832;23.918;2023-01-10T06:15:58;92089.03;;;7.71;72.10
40592;BME280;26301;42.832;23.918;2023-01-10T06:18:24;92139.44;;;7.99;72.48
40592;BME280;26301;42.832;23.918;2023-01-10T06:20:50;92111.28;;;7.87;72.53
40592;BME280;26301;42.832;23.918;2023-01-10T06:23:16;92121.50;;;7.82;73.30
40592;BME280;26301;42.832;23.918;2023-01-10T06:25:42;92137.06;;;7.92;73.79
40592;BME280;26301;42.832;23.918;2023-01-10T06:28:09;92141.56;;;7.80;73.93
40592;BME280;26301;42.832;23.918;2023-01-10T06:30:35;92135.72;;;7.63;74.64
40592;BME280;26301;42.832;23.918;2023-01-10T06:33:02;92148.38;;;7.69;74.76
40592;BME280;26301;42.832;23.918;2023-01-10T06:35:29;92144.75;;;7.65;75.41
40592;BME280;26301;42.832;23.918;2023-01-10T06:37:54;92145.53;;;7.66;75.17
40592;BME280;26301;42.832;23.918;2023-01-10T06:40:20;92159.56;;;7.58;76.07
40592;BME280;26301;42.832;23.918;2023-01-10T06:42:46;92160.78;;;7.50;76.17
40592;BME280;26301;42.832;23.918;2023-01-10T06:45:11;92142.97;;;7.44;77.08
40592;BME280;26301;42.832;23.918;2023-01-10T06:47:37;92154.91;;;7.55;76.84
40592;BME280;26301;42.832;23.918;2023-01-10T06:50:04;92146.03;;;7.41;77.26
40592;BME280;26301;42.832;23.918;2023-01-10T06:52:30;92163.94;;;7.57;77.59
40592;BME280;26301;42.832;23.918;2023-01-10T06:54:55;92147.38;;;7.48;77.61
40592;BME280;26301;42.832;23.918;2023-01-10T06:57:21;92160.47;;;7.47;78.35
40592;BME280;26301;42.832;23.918;2023-01-10T06:59:47;92137.28;;;7.42;78.99
40592;BME280;26301;42.832;23.918;2023-01-10T07:02:13;92149.38;;;7.41;79.73
40592;BME280;26301;42.832;23.918;2023-01-10T07:04:39;92130.25;;;7.32;80.25
40592;BME280;26301;42.832;23.918;2023-01-10T07:07:04;92140.75;;;7.30;79.83
40592;BME280;26301;42.832;23.918;2023-01-10T07:09:30;92150.50;;;7.50;80.25
40592;BME280;26301;42.832;23.918;2023-01-10T07:11:56;92134.59;;;7.53;80.42
40592;BME280;26301;42.832;23.918;2023-01-10T07:14:22;92149.59;;;7.62;80.15
40592;BME280;26301;42.832;23.918;2023-01-10T07:16:47;92116.91;;;7.57;80.70
40592;BME280;26301;42.832;23.918;2023-01-10T07:19:13;92146.59;;;7.70;81.04
40592;BME280;26301;42.832;23.918;2023-01-10T07:21:41;92140.94;;;7.68;81.66
40592;BME280;26301;42.832;23.918;2023-01-10T07:24:07;92151.78;;;7.75;80.68
40592;BME280;26301;42.832;23.918;2023-01-10T07:26:33;92125.94;;;7.60;81.50
40592;BME280;26301;42.832;23.918;2023-01-10T07:28:59;92139.91;;;7.69;81.54
40592;BME280;26301;42.832;23.918;2023-01-10T07:31:25;92155.41;;;7.79;82.35
40592;BME280;26301;42.832;23.918;2023-01-10T07:33:51;92166.50;;;7.79;83.33
40592;BME280;26301;42.832;23.918;2023-01-10T07:36:17;92156.38;;;7.73;85.53
40592;BME280;26301;42.832;23.918;2023-01-10T07:38:42;92163.63;;;7.76;85.33
40592;BME280;26301;42.832;23.918;2023-01-10T07:41:08;92161.03;;;7.76;86.81
40592;BME280;26301;42.832;23.918;2023-01-10T07:43:35;92152.69;;;7.64;89.01
40592;BME280;26301;42.832;23.918;2023-01-10T07:46:02;92147.06;;;7.67;89.47
40592;BME280;26301;42.832;23.918;2023-01-10T07:48:28;92164.91;;;7.73;93.32
40592;BME280;26301;42.832;23.918;2023-01-10T07:50:58;92151.34;;;7.56;95.29
40592;BME280;26301;42.832;23.918;2023-01-10T07:53:25;92165.78;;;7.62;96.28
40592;BME280;26301;42.832;23.918;2023-01-10T07:55:51;92160.09;;;7.60;97.95
40592;BME280;26301;42.832;23.918;2023-01-10T07:58:17;92142.31;;;7.53;99.17
40592;BME280;26301;42.832;23.918;2023-01-10T08:00:43;92140.44;;;7.49;100.00
40592;BME280;26301;42.832;23.918;2023-01-10T08:03:11;92152.03;;;7.51;100.00
40592;BME280;26301;42.832;23.918;2023-01-10T08:05:37;92148.94;;;7.49;100.00
40592;BME280;26301;42.832;23.918;2023-01-10T08:08:08;92133.56;;;7.54;100.00
40592;BME280;26301;42.832;23.918;2023-01-10T08:10:34;92145.94;;;7.57;100.00
40592;BME280;26301;42.832;23.918;2023-01-10T08:13:01;92148.28;;;7.59;100.00
40592;BME280;26301;42.832;23.918;2023-01-10T08:15:27;92149.34;;;7.63;100.00
40592;BME280;26301;42.832;23.918;2023-01-10T08:17:53;92148.28;;;7.59;100.00
40592;BME280;26301;42.832;23.918;2023-01-10T08:20:19;92151.41;;;7.61;100.00
40592;BME280;26301;42.832;23.918;2023-01-10T08:22:45;92158.72;;;7.74;100.00
40592;BME280;26301;42.832;23.918;2023-01-10T08:25:10;92148.56;;;7.63;100.00
40592;BME280;26301;42.832;23.918;2023-01-10T08:27:36;92162.34;;;7.78;100.00
40592;BME280;26301;42.832;23.918;2023-01-10T08:30:05;92167.63;;;7.89;98.87
40592;BME280;26301;42.832;23.918;2023-01-10T08:32:31;92148.25;;;7.81;91.79
40592;BME280;26301;42.832;23.918;2023-01-10T08:34:57;92164.63;;;7.75;90.48
40592;BME280;26301;42.832;23.918;2023-01-10T08:37:23;92168.53;;;7.77;89.86
40592;BME280;26301;42.832;23.918;2023-01-10T08:39:48;92166.09;;;7.66;88.60
40592;BME280;26301;42.832;23.918;2023-01-10T08:42:14;92157.44;;;7.50;90.16
40592;BME280;26301;42.832;23.918;2023-01-10T08:44:41;92178.88;;;7.61;90.72
40592;BME280;26301;42.832;23.918;2023-01-10T08:47:07;92171.72;;;7.63;91.58
40592;BME280;26301;42.832;23.918;2023-01-10T08:49:33;92156.53;;;7.39;92.94
40592;BME280;26301;42.832;23.918;2023-01-10T08:52:00;92173.38;;;7.52;93.23
40592;BME280;26301;42.832;23.918;2023-01-10T08:54:26;92161.44;;;7.41;95.26
40592;BME280;26301;42.832;23.918;2023-01-10T08:56:52;92163.09;;;7.30;96.13
40592;BME280;26301;42.832;23.918;2023-01-10T08:59:18;92149.03;;;7.16;96.75
40592;BME280;26301;42.832;23.918;2023-01-10T09:01:43;92160.16;;;7.21;97.20
40592;BME280;26301;42.832;23.918;2023-01-10T09:04:09;92151.97;;;7.24;98.01
40592;BME280;26301;42.832;23.918;2023-01-10T09:06:35;92153.06;;;7.28;97.96
40592;BME280;26301;42.832;23.918;2023-01-10T09:09:01;92151.03;;;7.30;97.83
40592;BME280;26301;42.832;23.918;2023-01-10T09:11:27;92131.44;;;7.24;97.58
40592;BME280;26301;42.832;23.918;2023-01-10T09:13:52;92145.66;;;7.32;97.58
40592;BME280;26301;42.832;23.918;2023-01-10T09:16:18;92135.63;;;7.30;97.67
40592;BME280;26301;42.832;23.918;2023-01-10T09:18:44;92141.88;;;7.40;97.53
40592;BME280;26301;42.832;23.918;2023-01-10T09:21:10;92129.22;;;7.33;97.67
40592;BME280;26301;42.832;23.918;2023-01-10T09:23:35;92142.22;;;7.43;97.26
40592;BME280;26301;42.832;23.918;2023-01-10T09:26:02;92136.03;;;7.44;97.26
40592;BME280;26301;42.832;23.918;2023-01-10T09:28:28;92141.47;;;7.48;99.05
40592;BME280;26301;42.832;23.918;2023-01-10T09:30:54;92122.06;;;7.35;98.53
40592;BME280;26301;42.832;23.918;2023-01-10T09:33:20;92132.41;;;7.40;97.61
40592;BME280;26301;42.832;23.918;2023-01-10T09:35:46;92116.28;;;7.23;94.28
40592;BME280;26301;42.832;23.918;2023-01-10T09:38:16;92121.88;;;7.20;94.54
40592;BME280;26301;42.832;23.918;2023-01-10T09:49:17;92099.38;;;7.05;93.16
40592;BME280;26301;42.832;23.918;2023-01-10T09:51:51;92093.94;;;7.01;92.85
40592;BME280;26301;42.832;23.918;2023-01-10T09:54:33;92087.41;;;6.94;93.54
40592;BME280;26301;42.832;23.918;2023-01-10T09:57:01;92073.00;;;6.71;94.30
40592;BME280;26301;42.832;23.918;2023-01-10T09:59:35;92081.63;;;6.81;95.03
40592;BME280;26301;42.832;23.918;2023-01-10T10:02:24;92051.50;;;6.77;94.62
40592;BME280;26301;42.832;23.918;2023-01-10T10:05:08;92069.34;;;6.83;94.47
40592;BME280;26301;42.832;23.918;2023-01-10T10:07:36;92064.00;;;6.68;94.98
40592;BME280;26301;42.832;23.918;2023-01-10T10:10:04;92047.94;;;6.56;95.43
40592;BME280;26301;42.832;23.918;2023-01-10T10:12:47;92061.66;;;6.67;95.18
40592;BME280;26301;42.832;23.918;2023-01-10T10:15:31;92039.78;;;6.59;94.65
40592;BME280;26301;42.832;23.918;2023-01-10T10:21:01;92054.22;;;6.65;95.28
40592;BME280;26301;42.832;23.918;2023-01-10T10:23:49;92049.59;;;6.67;93.80
40592;BME280;26301;42.832;23.918;2023-01-10T10:26:35;92051.41;;;6.67;93.96
40592;BME280;26301;42.832;23.918;2023-01-10T10:34:12;92045.78;;;6.70;94.77
40592;BME280;26301;42.832;23.918;2023-01-10T10:36:55;92033.69;;;6.65;94.79
40592;BME280;26301;42.832;23.918;2023-01-10T10:39:27;92028.84;;;6.69;94.34
40592;BME280;26301;42.832;23.918;2023-01-10T10:41:57;92015.66;;;6.60;94.81
40592;BME280;26301;42.832;23.918;2023-01-10T10:44:49;92026.75;;;6.66;95.42
40592;BME280;26301;42.832;23.918;2023-01-10T10:47:19;92018.53;;;6.63;96.02
40592;BME280;26301;42.832;23.918;2023-01-10T10:54:44;92008.19;;;6.58;96.01
40592;BME280;26301;42.832;23.918;2023-01-10T10:57:11;92009.50;;;6.61;96.07
40592;BME280;26301;42.832;23.918;2023-01-10T10:59:37;92001.09;;;6.66;94.25
40592;BME280;26301;42.832;23.918;2023-01-10T11:02:21;92010.63;;;6.70;94.85
40592;BME280;26301;42.832;23.918;2023-01-10T11:04:50;92007.72;;;6.61;94.32
40592;BME280;26301;42.832;23.918;2023-01-10T11:07:17;91991.06;;;6.42;94.24
40592;BME280;26301;42.832;23.918;2023-01-10T11:09:45;91979.88;;;6.31;95.62
40592;BME280;26301;42.832;23.918;2023-01-10T11:12:20;91990.47;;;6.35;96.88
40592;BME280;26301;42.832;23.918;2023-01-10T11:14:50;91986.28;;;6.29;97.04
40592;BME280;26301;42.832;23.918;2023-01-10T11:17:22;91979.00;;;6.21;98.19
40592;BME280;26301;42.832;23.918;2023-01-10T11:20:14;91996.06;;;6.32;98.60
40592;BME280;26301;42.832;23.918;2023-01-10T11:22:48;91971.28;;;6.21;99.05
40592;BME280;26301;42.832;23.918;2023-01-10T11:25:18;91990.97;;;6.37;99.68
40592;BME280;26301;42.832;23.918;2023-01-10T11:27:53;91969.88;;;6.30;99.36
40592;BME280;26301;42.832;23.918;2023-01-10T11:30:22;91961.16;;;6.31;99.14
40592;BME280;26301;42.832;23.918;2023-01-10T11:33:15;91983.91;;;6.44;98.30
40592;BME280;26301;42.832;23.918;2023-01-10T11:35:59;91986.22;;;6.46;98.48
40592;BME280;26301;42.832;23.918;2023-01-10T11:38:26;91970.53;;;6.42;97.47
40592;BME280;26301;42.832;23.918;2023-01-10T11:41:00;91981.25;;;6.56;96.24
40592;BME280;26301;42.832;23.918;2023-01-10T11:43:27;91989.72;;;6.56;96.00
40592;BME280;26301;42.832;23.918;2023-01-10T11:45:56;91991.72;;;6.54;95.50
40592;BME280;26301;42.832;23.918;2023-01-10T11:48:24;91992.47;;;6.33;96.02
40592;BME280;26301;42.832;23.918;2023-01-10T11:50:53;91998.38;;;6.33;96.01
40592;BME280;26301;42.832;23.918;2023-01-10T11:53:39;91980.53;;;6.22;97.12
40592;BME280;26301;42.832;23.918;2023-01-10T11:56:06;91959.91;;;6.11;97.19
40592;BME280;26301;42.832;23.918;2023-01-10T11:58:35;91971.47;;;6.14;97.02
40592;BME280;26301;42.832;23.918;2023-01-10T12:01:02;91976.91;;;6.17;98.00
40592;BME280;26301;42.832;23.918;2023-01-10T12:03:34;91977.28;;;6.09;98.01
40592;BME280;26301;42.832;23.918;2023-01-10T12:06:14;91990.72;;;6.16;98.63
40592;BME280;26301;42.832;23.918;2023-01-10T12:08:42;91988.41;;;6.15;98.47
40592;BME280;26301;42.832;23.918;2023-01-10T12:13:51;91969.22;;;6.01;98.66
40592;BME280;26301;42.832;23.918;2023-01-10T12:16:33;91978.84;;;6.10;99.18
40592;BME280;26301;42.832;23.918;2023-01-10T12:19:02;91989.25;;;6.21;98.39
40592;BME280;26301;42.832;23.918;2023-01-10T12:21:41;91990.22;;;6.19;98.12
40592;BME280;26301;42.832;23.918;2023-01-10T12:24:14;91975.19;;;5.89;99.64
40592;BME280;26301;42.832;23.918;2023-01-10T12:26:43;91972.00;;;5.82;100.00
40592;BME280;26301;42.832;23.918;2023-01-10T12:29:20;91969.38;;;5.77;100.00
40592;BME280;26301;42.832;23.918;2023-01-10T12:31:49;91985.13;;;5.86;100.00
40592;BME280;26301;42.832;23.918;2023-01-10T12:34:20;91966.66;;;5.67;100.00
40592;BME280;26301;42.832;23.918;2023-01-10T12:39:43;91988.09;;;5.78;100.00
40592;BME280;26301;42.832;23.918;2023-01-10T12:42:42;91995.31;;;5.81;100.00
40592;BME280;26301;42.832;23.918;2023-01-10T12:45:41;92000.75;;;5.84;100.00
40592;BME280;26301;42.832;23.918;2023-01-10T12:48:31;91992.50;;;5.82;100.00
40592;BME280;26301;42.832;23.918;2023-01-10T12:51:03;91995.53;;;5.79;100.00
40592;BME280;26301;42.832;23.918;2023-01-10T12:53:43;92004.63;;;5.87;100.00
40592;BME280;26301;42.832;23.918;2023-01-10T12:56:14;91989.38;;;5.80;100.00
40592;BME280;26301;42.832;23.918;2023-01-10T12:58:42;92005.41;;;5.87;100.00
40592;BME280;26301;42.832;23.918;2023-01-10T13:01:17;92001.16;;;5.93;100.00
40592;BME280;26301;42.832;23.918;2023-01-10T13:03:45;91991.75;;;5.82;100.00
40592;BME280;26301;42.832;23.918;2023-01-10T13:06:37;91999.25;;;5.71;100.00
40592;BME280;26301;42.832;23.918;2023-01-10T13:09:23;91990.88;;;5.59;100.00
40592;BME280;26301;42.832;23.918;2023-01-10T13:12:06;92005.09;;;5.67;100.00
40592;BME280;26301;42.832;23.918;2023-01-10T13:14:47;92005.72;;;5.57;100.00
40592;BME280;26301;42.832;23.918;2023-01-10T13:22:49;92018.34;;;5.47;100.00
40592;BME280;26301;42.832;23.918;2023-01-10T13:25:32;92015.59;;;5.37;100.00
40592;BME280;26301;42.832;23.918;2023-01-10T13:30:31;92028.25;;;5.26;100.00
40592;BME280;26301;42.832;23.918;2023-01-10T13:33:06;92014.56;;;5.21;100.00
40592;BME280;26301;42.832;23.918;2023-01-10T13:35:40;92017.91;;;5.21;98.70
40592;BME280;26301;42.832;23.918;2023-01-10T13:41:09;92025.38;;;5.11;98.42
40592;BME280;26301;42.832;23.918;2023-01-10T13:46:33;92042.25;;;4.95;99.27
40592;BME280;26301;42.832;23.918;2023-01-10T13:51:28;92041.50;;;4.83;100.00
40592;BME280;26301;42.832;23.918;2023-01-10T13:54:02;92045.63;;;4.84;99.88
40592;BME280;26301;42.832;23.918;2023-01-10T13:56:35;92045.28;;;4.80;99.61
40592;BME280;26301;42.832;23.918;2023-01-10T13:59:02;92035.09;;;4.57;98.97
40592;BME280;26301;42.832;23.918;2023-01-10T14:01:52;92053.91;;;4.51;100.00
40592;BME280;26301;42.832;23.918;2023-01-10T14:04:39;92036.47;;;4.36;100.00
40592;BME280;26301;42.832;23.918;2023-01-10T14:07:23;92060.25;;;4.48;100.00
40592;BME280;26301;42.832;23.918;2023-01-10T14:09:50;92053.69;;;4.29;100.00
40592;BME280;26301;42.832;23.918;2023-01-10T14:15:07;92047.25;;;4.15;100.00
40592;BME280;26301;42.832;23.918;2023-01-10T14:18:01;92043.47;;;4.17;100.00
40592;BME280;26301;42.832;23.918;2023-01-10T14:20:28;92035.16;;;4.10;100.00
40592;BME280;26301;42.832;23.918;2023-01-10T14:23:05;92034.25;;;4.04;100.00
40592;BME280;26301;42.832;23.918;2023-01-10T14:25:36;92051.38;;;4.04;100.00
40592;BME280;26301;42.832;23.918;2023-01-10T14:28:03;92040.47;;;4.08;100.00
40592;BME280;26301;42.832;23.918;2023-01-10T14:30:33;92046.28;;;4.16;100.00
40592;BME280;26301;42.832;23.918;2023-01-10T14:33:19;92067.94;;;4.13;100.00
40592;BME280;26301;42.832;23.918;2023-01-10T14:35:49;92061.59;;;4.16;100.00